sensor_id;sensor_type;location;lat;lon;timestamp;P1;durP1;ratioP1;P2;durP2;ratioP2
8592;SDS011;4334;49.982;8.398;2024-03-17T00:01:38;9.93;;;4.70;;
8592;SDS011;4334;49.982;8.398;2024-03-17T00:04:06;7.53;;;4.80;;
8592;SDS011;4334;49.982;8.398;2024-03-17T00:06:33;6.57;;;4.50;;
8592;SDS011;4334;49.982;8.398;2024-03-17T00:08:58;7.33;;;4.47;;
8592;SDS011;4334;49.982;8.398;2024-03-17T00:11:26;5.33;;;3.97;;
8592;SDS011;4334;49.982;8.398;2024-03-17T00:13:51;6.17;;;4.30;;
8592;SDS011;4334;49.982;8.398;2024-03-17T00:16:18;5.67;;;4.30;;
8592;SDS011;4334;49.982;8.398;2024-03-17T00:18:44;6.50;;;4.27;;
8592;SDS011;4334;49.982;8.398;2024-03-17T00:21:12;7.50;;;4.30;;
8592;SDS011;4334;49.982;8.398;2024-03-17T00:23:38;6.23;;;4.70;;
8592;SDS011;4334;49.982;8.398;2024-03-17T00:26:05;6.00;;;4.40;;
8592;SDS011;4334;49.982;8.398;2024-03-17T00:28:30;7.97;;;5.27;;
8592;SDS011;4334;49.982;8.398;2024-03-17T00:30:57;6.80;;;4.70;;
8592;SDS011;4334;49.982;8.398;2024-03-17T00:33:22;7.70;;;4.97;;
8592;SDS011;4334;49.982;8.398;2024-03-17T00:35:50;5.97;;;4.20;;
8592;SDS011;4334;49.982;8.398;2024-03-17T00:38:16;10.33;;;5.50;;
8592;SDS011;4334;49.982;8.398;2024-03-17T00:40:43;7.63;;;4.43;;
8592;SDS011;4334;49.982;8.398;2024-03-17T00:43:10;8.27;;;4.60;;
8592;SDS011;4334;49.982;8.398;2024-03-17T00:45:37;7.07;;;4.80;;
8592;SDS011;4334;49.982;8.398;2024-03-17T00:48:03;6.27;;;4.60;;
8592;SDS011;4334;49.982;8.398;2024-03-17T00:50:31;7.83;;;4.37;;
8592;SDS011;4334;49.982;8.398;2024-03-17T00:52:56;9.80;;;4.93;;
8592;SDS011;4334;49.982;8.398;2024-03-17T00:55:23;7.57;;;4.77;;
8592;SDS011;4334;49.982;8.398;2024-03-17T00:57:48;7.00;;;4.97;;
8592;SDS011;4334;49.982;8.398;2024-03-17T01:00:15;8.17;;;5.17;;
8592;SDS011;4334;49.982;8.398;2024-03-17T01:02:41;8.73;;;5.40;;
8592;SDS011;4334;49.982;8.398;2024-03-17T01:05:08;7.53;;;4.73;;
8592;SDS011;4334;49.982;8.398;2024-03-17T01:07:33;9.30;;;5.00;;
8592;SDS011;4334;49.982;8.398;2024-03-17T01:10:00;6.37;;;4.63;;
8592;SDS011;4334;49.982;8.398;2024-03-17T01:12:26;7.83;;;5.50;;
8592;SDS011;4334;49.982;8.398;2024-03-17T01:14:52;8.30;;;5.10;;
8592;SDS011;4334;49.982;8.398;2024-03-17T01:17:18;10.50;;;5.23;;
8592;SDS011;4334;49.982;8.398;2024-03-17T01:19:45;7.03;;;4.90;;
8592;SDS011;4334;49.982;8.398;2024-03-17T01:22:11;7.57;;;5.17;;
8592;SDS011;4334;49.982;8.398;2024-03-17T01:24:37;5.97;;;4.40;;
8592;SDS011;4334;49.982;8.398;2024-03-17T01:27:06;7.93;;;5.17;;
8592;SDS011;4334;49.982;8.398;2024-03-17T01:29:34;6.93;;;4.80;;
8592;SDS011;4334;49.982;8.398;2024-03-17T01:32:00;8.57;;;4.97;;
8592;SDS011;4334;49.982;8.398;2024-03-17T01:34:26;7.47;;;4.80;;
8592;SDS011;4334;49.982;8.398;2024-03-17T01:36:52;6.40;;;4.73;;
8592;SDS011;4334;49.982;8.398;2024-03-17T01:39:18;8.40;;;5.07;;
8592;SDS011;4334;49.982;8.398;2024-03-17T01:41:46;7.70;;;5.17;;
8592;SDS011;4334;49.982;8.398;2024-03-17T01:44:22;9.40;;;5.10;;
8592;SDS011;4334;49.982;8.398;2024-03-17T01:46:49;7.30;;;4.73;;
8592;SDS011;4334;49.982;8.398;2024-03-17T01:49:17;6.07;;;4.60;;
8592;SDS011;4334;49.982;8.398;2024-03-17T01:51:44;11.30;;;5.53;;
8592;SDS011;4334;49.982;8.398;2024-03-17T01:54:12;5.97;;;4.80;;
8592;SDS011;4334;49.982;8.398;2024-03-17T01:56:39;7.27;;;4.80;;
8592;SDS011;4334;49.982;8.398;2024-03-17T01:59:07;7.93;;;4.87;;
8592;SDS011;4334;49.982;8.398;2024-03-17T02:01:34;7.53;;;4.53;;
8592;SDS011;4334;49.982;8.398;2024-03-17T02:04:01;8.97;;;5.60;;
8592;SDS011;4334;49.982;8.398;2024-03-17T02:06:27;9.47;;;5.80;;
8592;SDS011;4334;49.982;8.398;2024-03-17T02:08:54;12.27;;;5.67;;
8592;SDS011;4334;49.982;8.398;2024-03-17T02:11:23;8.57;;;5.53;;
8592;SDS011;4334;49.982;8.398;2024-03-17T02:13:52;12.10;;;6.13;;
8592;SDS011;4334;49.982;8.398;2024-03-17T02:16:18;8.93;;;6.10;;
8592;SDS011;4334;49.982;8.398;2024-03-17T02:18:45;9.90;;;6.27;;
8592;SDS011;4334;49.982;8.398;2024-03-17T02:21:12;10.23;;;6.40;;
8592;SDS011;4334;49.982;8.398;2024-03-17T02:23:40;10.87;;;6.00;;
8592;SDS011;4334;49.982;8.398;2024-03-17T02:26:07;9.83;;;6.10;;
8592;SDS011;4334;49.982;8.398;2024-03-17T02:28:43;12.70;;;6.17;;
8592;SDS011;4334;49.982;8.398;2024-03-17T02:31:10;9.10;;;6.10;;
8592;SDS011;4334;49.982;8.398;2024-03-17T02:33:37;11.60;;;6.53;;
8592;SDS011;4334;49.982;8.398;2024-03-17T02:36:03;10.23;;;6.37;;
8592;SDS011;4334;49.982;8.398;2024-03-17T02:38:32;12.23;;;6.57;;
8592;SDS011;4334;49.982;8.398;2024-03-17T02:41:19;11.67;;;5.97;;
8592;SDS011;4334;49.982;8.398;2024-03-17T02:43:47;13.27;;;6.90;;
8592;SDS011;4334;49.982;8.398;2024-03-17T02:46:14;13.37;;;5.93;;
8592;SDS011;4334;49.982;8.398;2024-03-17T02:48:43;8.93;;;6.07;;
8592;SDS011;4334;49.982;8.398;2024-03-17T02:51:15;9.47;;;6.13;;
8592;SDS011;4334;49.982;8.398;2024-03-17T02:53:44;10.30;;;5.73;;
8592;SDS011;4334;49.982;8.398;2024-03-17T02:56:11;9.73;;;6.60;;
8592;SDS011;4334;49.982;8.398;2024-03-17T02:58:41;10.80;;;6.37;;
8592;SDS011;4334;49.982;8.398;2024-03-17T03:01:08;8.77;;;5.63;;
8592;SDS011;4334;49.982;8.398;2024-03-17T03:03:35;9.67;;;6.20;;
8592;SDS011;4334;49.982;8.398;2024-03-17T03:06:02;12.07;;;6.13;;
8592;SDS011;4334;49.982;8.398;2024-03-17T03:08:34;13.17;;;6.03;;
8592;SDS011;4334;49.982;8.398;2024-03-17T03:11:07;11.17;;;5.90;;
8592;SDS011;4334;49.982;8.398;2024-03-17T03:13:36;10.00;;;5.70;;
8592;SDS011;4334;49.982;8.398;2024-03-17T03:16:07;9.67;;;5.70;;
8592;SDS011;4334;49.982;8.398;2024-03-17T03:18:34;11.70;;;6.57;;
8592;SDS011;4334;49.982;8.398;2024-03-17T03:21:01;10.07;;;6.13;;
8592;SDS011;4334;49.982;8.398;2024-03-17T03:23:28;10.67;;;6.37;;
8592;SDS011;4334;49.982;8.398;2024-03-17T03:25:55;9.37;;;5.93;;
8592;SDS011;4334;49.982;8.398;2024-03-17T03:28:23;10.67;;;5.93;;
8592;SDS011;4334;49.982;8.398;2024-03-17T03:30:50;11.27;;;6.10;;
8592;SDS011;4334;49.982;8.398;2024-03-17T03:33:18;9.70;;;6.07;;
8592;SDS011;4334;49.982;8.398;2024-03-17T03:35:45;12.20;;;6.87;;
8592;SDS011;4334;49.982;8.398;2024-03-17T03:38:12;9.40;;;6.20;;
8592;SDS011;4334;49.982;8.398;2024-03-17T03:40:40;12.50;;;6.47;;
8592;SDS011;4334;49.982;8.398;2024-03-17T03:43:07;14.60;;;6.77;;
8592;SDS011;4334;49.982;8.398;2024-03-17T03:45:37;8.60;;;5.37;;
8592;SDS011;4334;49.982;8.398;2024-03-17T03:48:05;7.87;;;5.60;;
8592;SDS011;4334;49.982;8.398;2024-03-17T03:50:33;11.33;;;6.33;;
8592;SDS011;4334;49.982;8.398;2024-03-17T03:53:00;9.80;;;6.43;;
8592;SDS011;4334;49.982;8.398;2024-03-17T03:55:27;10.57;;;6.33;;
8592;SDS011;4334;49.982;8.398;2024-03-17T03:57:54;12.10;;;6.47;;
8592;SDS011;4334;49.982;8.398;2024-03-17T04:00:21;10.87;;;6.67;;
8592;SDS011;4334;49.982;8.398;2024-03-17T04:02:49;13.37;;;7.00;;
8592;SDS011;4334;49.982;8.398;2024-03-17T04:05:17;9.50;;;6.33;;
8592;SDS011;4334;49.982;8.398;2024-03-17T04:07:45;11.77;;;6.27;;
8592;SDS011;4334;49.982;8.398;2024-03-17T04:10:13;10.73;;;6.57;;
8592;SDS011;4334;49.982;8.398;2024-03-17T04:12:41;13.40;;;6.90;;
8592;SDS011;4334;49.982;8.398;2024-03-17T04:15:08;13.47;;;7.00;;
8592;SDS011;4334;49.982;8.398;2024-03-17T04:17:36;10.10;;;6.20;;
8592;SDS011;4334;49.982;8.398;2024-03-17T04:20:03;15.53;;;7.07;;
8592;SDS011;4334;49.982;8.398;2024-03-17T04:22:33;12.00;;;7.40;;
8592;SDS011;4334;49.982;8.398;2024-03-17T04:25:00;15.70;;;7.23;;
8592;SDS011;4334;49.982;8.398;2024-03-17T04:27:28;12.17;;;6.67;;
8592;SDS011;4334;49.982;8.398;2024-03-17T04:29:56;11.43;;;6.77;;
8592;SDS011;4334;49.982;8.398;2024-03-17T04:32:24;11.23;;;7.17;;
8592;SDS011;4334;49.982;8.398;2024-03-17T04:34:51;10.87;;;6.40;;
8592;SDS011;4334;49.982;8.398;2024-03-17T04:37:18;13.47;;;6.77;;
8592;SDS011;4334;49.982;8.398;2024-03-17T04:39:45;13.20;;;6.93;;
8592;SDS011;4334;49.982;8.398;2024-03-17T04:42:13;13.50;;;6.83;;
8592;SDS011;4334;49.982;8.398;2024-03-17T04:44:41;10.53;;;6.23;;
8592;SDS011;4334;49.982;8.398;2024-03-17T04:47:08;11.47;;;6.93;;
8592;SDS011;4334;49.982;8.398;2024-03-17T04:49:39;8.87;;;5.20;;
8592;SDS011;4334;49.982;8.398;2024-03-17T04:52:07;14.10;;;7.10;;
8592;SDS011;4334;49.982;8.398;2024-03-17T04:54:35;13.33;;;6.27;;
8592;SDS011;4334;49.982;8.398;2024-03-17T04:57:02;10.77;;;6.27;;
8592;SDS011;4334;49.982;8.398;2024-03-17T04:59:29;13.53;;;7.07;;
8592;SDS011;4334;49.982;8.398;2024-03-17T05:01:56;13.97;;;6.70;;
8592;SDS011;4334;49.982;8.398;2024-03-17T05:04:22;13.00;;;6.57;;
8592;SDS011;4334;49.982;8.398;2024-03-17T05:06:49;11.27;;;6.30;;
8592;SDS011;4334;49.982;8.398;2024-03-17T05:09:18;19.30;;;6.33;;
8592;SDS011;4334;49.982;8.398;2024-03-17T05:11:45;11.17;;;6.47;;
8592;SDS011;4334;49.982;8.398;2024-03-17T05:14:12;10.67;;;6.67;;
8592;SDS011;4334;49.982;8.398;2024-03-17T05:16:39;11.47;;;6.37;;
8592;SDS011;4334;49.982;8.398;2024-03-17T05:19:05;12.23;;;7.20;;
8592;SDS011;4334;49.982;8.398;2024-03-17T05:21:34;11.60;;;7.00;;
8592;SDS011;4334;49.982;8.398;2024-03-17T05:24:01;9.63;;;6.07;;
8592;SDS011;4334;49.982;8.398;2024-03-17T05:26:28;10.83;;;6.07;;
8592;SDS011;4334;49.982;8.398;2024-03-17T05:28:55;8.90;;;5.50;;
8592;SDS011;4334;49.982;8.398;2024-03-17T05:31:22;8.10;;;5.83;;
8592;SDS011;4334;49.982;8.398;2024-03-17T05:33:48;10.53;;;6.50;;
8592;SDS011;4334;49.982;8.398;2024-03-17T05:36:17;10.23;;;5.60;;
8592;SDS011;4334;49.982;8.398;2024-03-17T05:38:45;10.60;;;5.83;;
8592;SDS011;4334;49.982;8.398;2024-03-17T05:41:11;10.03;;;5.40;;
8592;SDS011;4334;49.982;8.398;2024-03-17T05:43:39;14.70;;;5.90;;
8592;SDS011;4334;49.982;8.398;2024-03-17T05:46:09;10.83;;;5.50;;
8592;SDS011;4334;49.982;8.398;2024-03-17T05:48:38;10.13;;;5.93;;
8592;SDS011;4334;49.982;8.398;2024-03-17T05:51:09;14.77;;;5.87;;
8592;SDS011;4334;49.982;8.398;2024-03-17T05:53:37;12.73;;;5.70;;
8592;SDS011;4334;49.982;8.398;2024-03-17T05:56:05;9.40;;;5.60;;
8592;SDS011;4334;49.982;8.398;2024-03-17T05:58:34;8.63;;;5.43;;
8592;SDS011;4334;49.982;8.398;2024-03-17T06:01:04;7.53;;;5.10;;
8592;SDS011;4334;49.982;8.398;2024-03-17T06:03:32;7.13;;;5.20;;
8592;SDS011;4334;49.982;8.398;2024-03-17T06:06:01;10.57;;;5.90;;
8592;SDS011;4334;49.982;8.398;2024-03-17T06:08:28;22.67;;;10.87;;
8592;SDS011;4334;49.982;8.398;2024-03-17T06:10:55;14.13;;;7.03;;
8592;SDS011;4334;49.982;8.398;2024-03-17T06:13:22;9.40;;;6.10;;
8592;SDS011;4334;49.982;8.398;2024-03-17T06:15:49;13.63;;;6.40;;
8592;SDS011;4334;49.982;8.398;2024-03-17T06:18:16;10.30;;;5.60;;
8592;SDS011;4334;49.982;8.398;2024-03-17T06:20:43;10.33;;;6.60;;
8592;SDS011;4334;49.982;8.398;2024-03-17T06:23:11;10.27;;;5.87;;
8592;SDS011;4334;49.982;8.398;2024-03-17T06:25:39;14.03;;;6.30;;
8592;SDS011;4334;49.982;8.398;2024-03-17T06:28:14;12.63;;;5.83;;
8592;SDS011;4334;49.982;8.398;2024-03-17T06:30:45;9.70;;;5.40;;
8592;SDS011;4334;49.982;8.398;2024-03-17T06:33:13;9.77;;;6.07;;
8592;SDS011;4334;49.982;8.398;2024-03-17T06:35:43;9.97;;;5.50;;
8592;SDS011;4334;49.982;8.398;2024-03-17T06:38:11;10.77;;;5.97;;
8592;SDS011;4334;49.982;8.398;2024-03-17T06:40:38;9.53;;;6.03;;
8592;SDS011;4334;49.982;8.398;2024-03-17T06:43:05;8.60;;;5.73;;
8592;SDS011;4334;49.982;8.398;2024-03-17T06:45:33;8.17;;;5.27;;
8592;SDS011;4334;49.982;8.398;2024-03-17T06:47:59;8.37;;;4.67;;
8592;SDS011;4334;49.982;8.398;2024-03-17T06:50:26;10.63;;;4.97;;
8592;SDS011;4334;49.982;8.398;2024-03-17T06:52:52;6.23;;;4.40;;
8592;SDS011;4334;49.982;8.398;2024-03-17T06:55:19;6.93;;;4.90;;
8592;SDS011;4334;49.982;8.398;2024-03-17T06:57:47;7.33;;;4.50;;
8592;SDS011;4334;49.982;8.398;2024-03-17T07:00:14;7.27;;;4.40;;
8592;SDS011;4334;49.982;8.398;2024-03-17T07:02:42;4.63;;;4.03;;
8592;SDS011;4334;49.982;8.398;2024-03-17T07:05:15;6.87;;;3.93;;
8592;SDS011;4334;49.982;8.398;2024-03-17T07:07:42;5.70;;;4.47;;
8592;SDS011;4334;49.982;8.398;2024-03-17T07:10:09;4.73;;;4.20;;
8592;SDS011;4334;49.982;8.398;2024-03-17T07:12:40;6.13;;;4.50;;
8592;SDS011;4334;49.982;8.398;2024-03-17T07:15:07;6.57;;;3.40;;
8592;SDS011;4334;49.982;8.398;2024-03-17T07:17:36;4.53;;;3.47;;
8592;SDS011;4334;49.982;8.398;2024-03-17T07:20:02;7.03;;;3.90;;
8592;SDS011;4334;49.982;8.398;2024-03-17T07:22:33;9.00;;;4.07;;
8592;SDS011;4334;49.982;8.398;2024-03-17T07:25:00;5.50;;;4.07;;
8592;SDS011;4334;49.982;8.398;2024-03-17T07:27:27;5.10;;;3.60;;
8592;SDS011;4334;49.982;8.398;2024-03-17T07:29:54;8.03;;;3.90;;
8592;SDS011;4334;49.982;8.398;2024-03-17T07:32:20;4.67;;;3.80;;
8592;SDS011;4334;49.982;8.398;2024-03-17T07:34:48;5.77;;;3.70;;
8592;SDS011;4334;49.982;8.398;2024-03-17T07:37:15;4.90;;;3.37;;
8592;SDS011;4334;49.982;8.398;2024-03-17T07:39:42;4.30;;;3.40;;
8592;SDS011;4334;49.982;8.398;2024-03-17T07:42:08;4.53;;;3.57;;
8592;SDS011;4334;49.982;8.398;2024-03-17T07:44:36;4.97;;;3.53;;
8592;SDS011;4334;49.982;8.398;2024-03-17T07:47:03;5.83;;;3.87;;
8592;SDS011;4334;49.982;8.398;2024-03-17T07:49:30;4.77;;;3.80;;
8592;SDS011;4334;49.982;8.398;2024-03-17T07:51:57;5.53;;;3.83;;
8592;SDS011;4334;49.982;8.398;2024-03-17T07:54:25;5.67;;;4.00;;
8592;SDS011;4334;49.982;8.398;2024-03-17T07:56:52;4.13;;;3.60;;
8592;SDS011;4334;49.982;8.398;2024-03-17T07:59:20;5.13;;;3.43;;
8592;SDS011;4334;49.982;8.398;2024-03-17T08:01:46;6.17;;;4.03;;
8592;SDS011;4334;49.982;8.398;2024-03-17T08:04:13;5.27;;;3.90;;
8592;SDS011;4334;49.982;8.398;2024-03-17T08:06:39;6.47;;;3.80;;
8592;SDS011;4334;49.982;8.398;2024-03-17T08:09:07;5.30;;;3.90;;
8592;SDS011;4334;49.982;8.398;2024-03-17T08:11:36;4.13;;;3.60;;
8592;SDS011;4334;49.982;8.398;2024-03-17T08:14:03;3.93;;;3.50;;
8592;SDS011;4334;49.982;8.398;2024-03-17T08:16:30;4.97;;;3.57;;
8592;SDS011;4334;49.982;8.398;2024-03-17T08:18:57;6.33;;;3.60;;
8592;SDS011;4334;49.982;8.398;2024-03-17T08:21:24;4.27;;;3.00;;
8592;SDS011;4334;49.982;8.398;2024-03-17T08:23:52;4.00;;;3.17;;
8592;SDS011;4334;49.982;8.398;2024-03-17T08:26:18;3.93;;;3.33;;
8592;SDS011;4334;49.982;8.398;2024-03-17T08:28:45;6.60;;;4.03;;
8592;SDS011;4334;49.982;8.398;2024-03-17T08:31:12;4.63;;;3.70;;
8592;SDS011;4334;49.982;8.398;2024-03-17T08:33:40;3.80;;;3.20;;
8592;SDS011;4334;49.982;8.398;2024-03-17T08:36:07;4.40;;;3.40;;
8592;SDS011;4334;49.982;8.398;2024-03-17T08:38:34;5.13;;;3.10;;
8592;SDS011;4334;49.982;8.398;2024-03-17T08:41:02;3.80;;;3.20;;
8592;SDS011;4334;49.982;8.398;2024-03-17T08:43:31;4.23;;;3.00;;
8592;SDS011;4334;49.982;8.398;2024-03-17T08:46:01;4.73;;;3.60;;
8592;SDS011;4334;49.982;8.398;2024-03-17T08:48:35;4.87;;;3.30;;
8592;SDS011;4334;49.982;8.398;2024-03-17T08:51:04;4.30;;;3.40;;
8592;SDS011;4334;49.982;8.398;2024-03-17T08:53:31;3.80;;;3.30;;
8592;SDS011;4334;49.982;8.398;2024-03-17T08:55:58;4.80;;;3.50;;
8592;SDS011;4334;49.982;8.398;2024-03-17T08:58:26;5.30;;;3.20;;
8592;SDS011;4334;49.982;8.398;2024-03-17T09:00:53;3.97;;;3.50;;
8592;SDS011;4334;49.982;8.398;2024-03-17T09:03:21;4.70;;;3.47;;
8592;SDS011;4334;49.982;8.398;2024-03-17T09:05:48;4.47;;;3.17;;
8592;SDS011;4334;49.982;8.398;2024-03-17T09:08:18;4.50;;;3.00;;
8592;SDS011;4334;49.982;8.398;2024-03-17T09:10:49;3.73;;;3.17;;
8592;SDS011;4334;49.982;8.398;2024-03-17T09:13:17;4.43;;;3.57;;
8592;SDS011;4334;49.982;8.398;2024-03-17T09:15:52;5.93;;;3.40;;
8592;SDS011;4334;49.982;8.398;2024-03-17T09:18:23;5.00;;;3.27;;
8592;SDS011;4334;49.982;8.398;2024-03-17T09:20:56;5.13;;;3.30;;
8592;SDS011;4334;49.982;8.398;2024-03-17T09:23:27;3.60;;;3.03;;
8592;SDS011;4334;49.982;8.398;2024-03-17T09:25:55;4.10;;;2.87;;
8592;SDS011;4334;49.982;8.398;2024-03-17T09:28:26;4.53;;;2.87;;
8592;SDS011;4334;49.982;8.398;2024-03-17T09:30:54;3.53;;;2.80;;
8592;SDS011;4334;49.982;8.398;2024-03-17T09:33:24;3.43;;;2.80;;
8592;SDS011;4334;49.982;8.398;2024-03-17T09:35:56;4.10;;;3.30;;
8592;SDS011;4334;49.982;8.398;2024-03-17T09:38:24;4.13;;;2.70;;
8592;SDS011;4334;49.982;8.398;2024-03-17T09:40:50;3.80;;;3.00;;
8592;SDS011;4334;49.982;8.398;2024-03-17T09:43:18;3.00;;;2.70;;
8592;SDS011;4334;49.982;8.398;2024-03-17T09:45:45;3.83;;;3.00;;
8592;SDS011;4334;49.982;8.398;2024-03-17T09:48:15;3.07;;;2.77;;
8592;SDS011;4334;49.982;8.398;2024-03-17T09:53:22;4.83;;;2.73;;
8592;SDS011;4334;49.982;8.398;2024-03-17T09:55:51;2.67;;;2.40;;
8592;SDS011;4334;49.982;8.398;2024-03-17T09:58:24;3.40;;;2.70;;
8592;SDS011;4334;49.982;8.398;2024-03-17T10:00:51;3.00;;;2.50;;
8592;SDS011;4334;49.982;8.398;2024-03-17T10:06:07;2.90;;;2.40;;
8592;SDS011;4334;49.982;8.398;2024-03-17T10:08:43;3.78;;;2.50;;
8592;SDS011;4334;49.982;8.398;2024-03-17T10:11:13;3.28;;;2.58;;
8592;SDS011;4334;49.982;8.398;2024-03-17T10:13:42;2.53;;;2.33;;
8592;SDS011;4334;49.982;8.398;2024-03-17T10:16:20;3.40;;;2.25;;
8592;SDS011;4334;49.982;8.398;2024-03-17T10:19:12;3.63;;;2.28;;
8592;SDS011;4334;49.982;8.398;2024-03-17T10:21:49;3.30;;;2.60;;
8592;SDS011;4334;49.982;8.398;2024-03-17T10:24:24;2.50;;;2.30;;
8592;SDS011;4334;49.982;8.398;2024-03-17T10:26:54;2.42;;;2.20;;
8592;SDS011;4334;49.982;8.398;2024-03-17T10:29:32;3.20;;;2.45;;
8592;SDS011;4334;49.982;8.398;2024-03-17T10:32:04;4.20;;;2.38;;
8592;SDS011;4334;49.982;8.398;2024-03-17T10:34:39;2.88;;;2.30;;
8592;SDS011;4334;49.982;8.398;2024-03-17T10:39:37;3.58;;;2.40;;
8592;SDS011;4334;49.982;8.398;2024-03-17T10:42:05;2.78;;;2.30;;
8592;SDS011;4334;49.982;8.398;2024-03-17T10:44:33;5.05;;;2.33;;
8592;SDS011;4334;49.982;8.398;2024-03-17T10:47:01;3.50;;;2.17;;
8592;SDS011;4334;49.982;8.398;2024-03-17T10:49:34;2.35;;;2.10;;
8592;SDS011;4334;49.982;8.398;2024-03-17T10:54:31;5.57;;;2.00;;
8592;SDS011;4334;49.982;8.398;2024-03-17T10:59:44;2.40;;;1.80;;
8592;SDS011;4334;49.982;8.398;2024-03-17T11:02:20;2.90;;;1.90;;
8592;SDS011;4334;49.982;8.398;2024-03-17T11:04:56;3.55;;;1.90;;
8592;SDS011;4334;49.982;8.398;2024-03-17T11:07:24;4.33;;;2.30;;
8592;SDS011;4334;49.982;8.398;2024-03-17T11:09:53;2.10;;;1.90;;
8592;SDS011;4334;49.982;8.398;2024-03-17T11:17:45;2.72;;;2.05;;
8592;SDS011;4334;49.982;8.398;2024-03-17T11:20:17;3.30;;;2.00;;
8592;SDS011;4334;49.982;8.398;2024-03-17T11:22:51;2.33;;;2.13;;
8592;SDS011;4334;49.982;8.398;2024-03-17T11:27:58;3.25;;;2.45;;
8592;SDS011;4334;49.982;8.398;2024-03-17T11:38:56;3.85;;;2.45;;
8592;SDS011;4334;49.982;8.398;2024-03-17T11:46:56;2.38;;;2.05;;
8592;SDS011;4334;49.982;8.398;2024-03-17T11:52:05;2.95;;;2.50;;
8592;SDS011;4334;49.982;8.398;2024-03-17T11:54:36;2.55;;;2.20;;
8592;SDS011;4334;49.982;8.398;2024-03-17T11:59:30;2.70;;;2.20;;
8592;SDS011;4334;49.982;8.398;2024-03-17T12:01:57;3.30;;;2.47;;
8592;SDS011;4334;49.982;8.398;2024-03-17T12:04:23;3.05;;;2.60;;
8592;SDS011;4334;49.982;8.398;2024-03-17T12:06:50;3.75;;;2.50;;
8592;SDS011;4334;49.982;8.398;2024-03-17T12:09:19;3.63;;;2.50;;
8592;SDS011;4334;49.982;8.398;2024-03-17T12:12:32;3.63;;;2.50;;
8592;SDS011;4334;49.982;8.398;2024-03-17T12:14:42;2.83;;;2.53;;
8592;SDS011;4334;49.982;8.398;2024-03-17T12:17:11;3.78;;;2.50;;
8592;SDS011;4334;49.982;8.398;2024-03-17T12:19:38;3.38;;;2.70;;
8592;SDS011;4334;49.982;8.398;2024-03-17T12:22:05;4.30;;;2.67;;
8592;SDS011;4334;49.982;8.398;2024-03-17T12:24:33;2.67;;;2.20;;
8592;SDS011;4334;49.982;8.398;2024-03-17T12:27:01;4.35;;;2.65;;
8592;SDS011;4334;49.982;8.398;2024-03-17T12:32:17;4.68;;;3.10;;
8592;SDS011;4334;49.982;8.398;2024-03-17T12:34:49;4.70;;;2.80;;
8592;SDS011;4334;49.982;8.398;2024-03-17T12:39:48;3.40;;;3.03;;
8592;SDS011;4334;49.982;8.398;2024-03-17T12:42:16;4.55;;;2.88;;
8592;SDS011;4334;49.982;8.398;2024-03-17T12:47:19;3.40;;;3.05;;
8592;SDS011;4334;49.982;8.398;2024-03-17T12:49:49;5.85;;;3.05;;
8592;SDS011;4334;49.982;8.398;2024-03-17T12:52:35;4.97;;;3.00;;
8592;SDS011;4334;49.982;8.398;2024-03-17T12:57:48;3.17;;;2.88;;
8592;SDS011;4334;49.982;8.398;2024-03-17T13:00:45;4.25;;;3.28;;
8592;SDS011;4334;49.982;8.398;2024-03-17T13:03:21;3.67;;;3.20;;
8592;SDS011;4334;49.982;8.398;2024-03-17T13:05:50;5.50;;;3.40;;
8592;SDS011;4334;49.982;8.398;2024-03-17T13:08:17;3.88;;;3.30;;
8592;SDS011;4334;49.982;8.398;2024-03-17T13:10:44;4.88;;;3.55;;
8592;SDS011;4334;49.982;8.398;2024-03-17T13:13:12;3.63;;;3.13;;
8592;SDS011;4334;49.982;8.398;2024-03-17T13:15:40;7.38;;;3.97;;
8592;SDS011;4334;49.982;8.398;2024-03-17T13:18:08;6.15;;;3.58;;
8592;SDS011;4334;49.982;8.398;2024-03-17T13:20:35;6.50;;;3.60;;
8592;SDS011;4334;49.982;8.398;2024-03-17T13:23:01;4.20;;;3.50;;
8592;SDS011;4334;49.982;8.398;2024-03-17T13:25:29;8.05;;;3.70;;
8592;SDS011;4334;49.982;8.398;2024-03-17T13:27:59;4.68;;;3.55;;
8592;SDS011;4334;49.982;8.398;2024-03-17T13:30:28;5.50;;;3.95;;
8592;SDS011;4334;49.982;8.398;2024-03-17T13:32:55;5.05;;;3.65;;
8592;SDS011;4334;49.982;8.398;2024-03-17T13:35:23;7.97;;;4.70;;
8592;SDS011;4334;49.982;8.398;2024-03-17T13:37:55;6.80;;;4.50;;
8592;SDS011;4334;49.982;8.398;2024-03-17T13:40:24;6.15;;;4.18;;
8592;SDS011;4334;49.982;8.398;2024-03-17T13:42:52;6.28;;;3.92;;
8592;SDS011;4334;49.982;8.398;2024-03-17T13:45:20;5.53;;;3.90;;
8592;SDS011;4334;49.982;8.398;2024-03-17T13:47:49;5.57;;;4.18;;
8592;SDS011;4334;49.982;8.398;2024-03-17T13:50:20;5.40;;;4.05;;
8592;SDS011;4334;49.982;8.398;2024-03-17T13:52:46;5.13;;;4.10;;
8592;SDS011;4334;49.982;8.398;2024-03-17T13:55:14;6.68;;;4.20;;
8592;SDS011;4334;49.982;8.398;2024-03-17T13:57:46;5.47;;;3.67;;
8592;SDS011;4334;49.982;8.398;2024-03-17T14:00:19;6.25;;;4.13;;
8592;SDS011;4334;49.982;8.398;2024-03-17T14:02:46;7.03;;;4.10;;
8592;SDS011;4334;49.982;8.398;2024-03-17T14:05:15;6.20;;;4.30;;
8592;SDS011;4334;49.982;8.398;2024-03-17T14:07:43;5.43;;;4.10;;
8592;SDS011;4334;49.982;8.398;2024-03-17T14:10:11;6.03;;;4.30;;
8592;SDS011;4334;49.982;8.398;2024-03-17T14:12:39;8.23;;;5.32;;
8592;SDS011;4334;49.982;8.398;2024-03-17T14:15:07;7.00;;;4.30;;
8592;SDS011;4334;49.982;8.398;2024-03-17T14:17:35;5.57;;;4.25;;
8592;SDS011;4334;49.982;8.398;2024-03-17T14:20:03;5.93;;;4.23;;
8592;SDS011;4334;49.982;8.398;2024-03-17T14:22:34;5.70;;;4.03;;
8592;SDS011;4334;49.982;8.398;2024-03-17T14:25:01;5.97;;;3.93;;
8592;SDS011;4334;49.982;8.398;2024-03-17T14:27:28;5.20;;;3.47;;
8592;SDS011;4334;49.982;8.398;2024-03-17T14:29:55;5.23;;;3.90;;
8592;SDS011;4334;49.982;8.398;2024-03-17T14:32:21;5.70;;;4.20;;
8592;SDS011;4334;49.982;8.398;2024-03-17T14:34:48;6.70;;;4.03;;
8592;SDS011;4334;49.982;8.398;2024-03-17T14:37:15;5.97;;;4.10;;
8592;SDS011;4334;49.982;8.398;2024-03-17T14:39:41;6.63;;;4.10;;
8592;SDS011;4334;49.982;8.398;2024-03-17T14:42:09;5.50;;;3.67;;
8592;SDS011;4334;49.982;8.398;2024-03-17T14:44:36;5.87;;;4.00;;
8592;SDS011;4334;49.982;8.398;2024-03-17T14:47:02;5.60;;;4.20;;
8592;SDS011;4334;49.982;8.398;2024-03-17T14:49:30;6.73;;;4.10;;
8592;SDS011;4334;49.982;8.398;2024-03-17T14:51:57;8.27;;;4.33;;
8592;SDS011;4334;49.982;8.398;2024-03-17T14:54:23;5.87;;;4.07;;
8592;SDS011;4334;49.982;8.398;2024-03-17T14:56:50;7.03;;;4.43;;
8592;SDS011;4334;49.982;8.398;2024-03-17T14:59:18;6.50;;;4.30;;
8592;SDS011;4334;49.982;8.398;2024-03-17T15:01:45;8.30;;;5.03;;
8592;SDS011;4334;49.982;8.398;2024-03-17T15:04:13;5.73;;;3.87;;
8592;SDS011;4334;49.982;8.398;2024-03-17T15:06:40;6.10;;;4.17;;
8592;SDS011;4334;49.982;8.398;2024-03-17T15:09:08;6.50;;;3.93;;
8592;SDS011;4334;49.982;8.398;2024-03-17T15:11:35;5.93;;;4.03;;
8592;SDS011;4334;49.982;8.398;2024-03-17T15:14:01;5.13;;;3.70;;
8592;SDS011;4334;49.982;8.398;2024-03-17T15:16:29;5.60;;;4.00;;
8592;SDS011;4334;49.982;8.398;2024-03-17T15:18:55;6.57;;;3.60;;
8592;SDS011;4334;49.982;8.398;2024-03-17T15:21:23;5.77;;;3.87;;
8592;SDS011;4334;49.982;8.398;2024-03-17T15:23:50;5.13;;;3.67;;
8592;SDS011;4334;49.982;8.398;2024-03-17T15:26:17;5.77;;;4.20;;
8592;SDS011;4334;49.982;8.398;2024-03-17T15:28:45;5.93;;;4.27;;
8592;SDS011;4334;49.982;8.398;2024-03-17T15:31:11;5.13;;;3.77;;
8592;SDS011;4334;49.982;8.398;2024-03-17T15:33:38;5.70;;;4.20;;
8592;SDS011;4334;49.982;8.398;2024-03-17T15:36:08;4.50;;;3.33;;
8592;SDS011;4334;49.982;8.398;2024-03-17T15:38:35;6.40;;;3.67;;
8592;SDS011;4334;49.982;8.398;2024-03-17T15:41:09;5.25;;;3.83;;
8592;SDS011;4334;49.982;8.398;2024-03-17T15:43:37;6.45;;;3.88;;
8592;SDS011;4334;49.982;8.398;2024-03-17T15:46:19;5.03;;;3.50;;
8592;SDS011;4334;49.982;8.398;2024-03-17T15:48:47;5.07;;;3.33;;
8592;SDS011;4334;49.982;8.398;2024-03-17T15:51:14;5.65;;;3.53;;
8592;SDS011;4334;49.982;8.398;2024-03-17T15:53:46;3.97;;;3.10;;
8592;SDS011;4334;49.982;8.398;2024-03-17T15:56:13;6.05;;;3.75;;
8592;SDS011;4334;49.982;8.398;2024-03-17T15:58:41;7.05;;;3.90;;
8592;SDS011;4334;49.982;8.398;2024-03-17T16:01:08;14.60;;;4.80;;
8592;SDS011;4334;49.982;8.398;2024-03-17T16:03:37;4.13;;;3.53;;
8592;SDS011;4334;49.982;8.398;2024-03-17T16:06:11;6.45;;;4.18;;
8592;SDS011;4334;49.982;8.398;2024-03-17T16:08:43;4.97;;;3.30;;
8592;SDS011;4334;49.982;8.398;2024-03-17T16:11:12;7.67;;;3.83;;